createdAt,value
2023-01-11T00:00:40.054Z,51.70
2023-01-11T00:03:09.349Z,51.70
2023-01-11T00:05:40.569Z,51.70
2023-01-11T00:08:09.498Z,51.70
2023-01-11T00:10:38.007Z,51.70
2023-01-11T00:13:06.260Z,51.70
2023-01-11T00:15:35.598Z,51.70
2023-01-11T00:18:03.895Z,51.70
2023-01-11T00:20:33.362Z,51.70
2023-01-11T00:23:01.399Z,51.70
2023-01-11T00:25:29.279Z,51.70
2023-01-11T00:27:57.270Z,51.70
2023-01-11T00:30:25.696Z,51.70
2023-01-11T00:32:57.124Z,51.70
2023-01-11T00:35:25.712Z,51.70
2023-01-11T00:37:55.356Z,51.70
2023-01-11T00:40:24.004Z,51.70
2023-01-11T00:43:09.371Z,51.70
2023-01-11T00:45:54.936Z,51.70
2023-01-11T00:48:22.867Z,51.70
2023-01-11T00:50:53.593Z,51.70
2023-01-11T00:53:22.827Z,51.70
2023-01-11T00:55:50.682Z,51.70
2023-01-11T00:58:18.582Z,51.70
2023-01-11T01:00:46.481Z,51.70
2023-01-11T01:03:14.417Z,51.70
2023-01-11T01:05:42.249Z,51.70
2023-01-11T01:08:10.268Z,51.70
2023-01-11T01:10:39.486Z,51.70
2023-01-11T01:13:25.038Z,51.70
2023-01-11T01:15:57.911Z,51.80
2023-01-11T01:18:25.888Z,51.80
2023-01-11T01:20:53.708Z,51.70
2023-01-11T01:23:21.555Z,51.70
2023-01-11T01:25:50.779Z,51.70
2023-01-11T01:28:21.928Z,51.70
2023-01-11T01:30:52.192Z,51.70
2023-01-11T01:33:20.158Z,51.70
2023-01-11T01:35:48.062Z,51.70
2023-01-11T01:38:16.558Z,51.80
2023-01-11T01:40:45.704Z,51.70
2023-01-11T01:43:16.858Z,51.80
2023-01-11T01:45:44.900Z,51.80
2023-01-11T01:48:17.005Z,51.80
2023-01-11T01:50:48.782Z,51.80
2023-01-11T01:53:22.557Z,51.80
2023-01-11T01:55:53.190Z,51.80
2023-01-11T01:58:27.887Z,51.70
2023-01-11T02:00:55.772Z,51.80
2023-01-11T02:03:26.980Z,51.80
2023-01-11T02:05:55.383Z,51.80
2023-01-11T02:08:30.359Z,51.80
2023-01-11T02:10:58.502Z,51.80
2023-01-11T02:13:28.275Z,51.80
2023-01-11T02:16:08.582Z,51.70
2023-01-11T02:18:37.449Z,51.80
2023-01-11T02:21:21.022Z,51.80
2023-01-11T02:24:11.102Z,51.80
2023-01-11T02:27:10.336Z,51.80
2023-01-11T02:29:47.432Z,51.90
2023-01-11T02:32:27.198Z,51.80
2023-01-11T02:35:04.387Z,51.80
2023-01-11T02:37:41.199Z,51.80
2023-01-11T02:40:15.926Z,51.80
2023-01-11T02:43:09.585Z,51.80
2023-01-11T02:45:45.632Z,51.80
2023-01-11T02:48:20.876Z,51.80
2023-01-11T02:50:54.778Z,51.80
2023-01-11T02:53:28.724Z,51.80
2023-01-11T02:55:59.705Z,51.80
2023-01-11T02:58:31.276Z,51.80
2023-01-11T03:01:01.522Z,51.80
2023-01-11T03:03:29.563Z,51.80
2023-01-11T03:06:02.096Z,51.80
2023-01-11T03:08:46.060Z,51.80
2023-01-11T03:11:39.458Z,51.80
2023-01-11T03:14:17.035Z,51.80
2023-01-11T03:16:55.286Z,51.90
2023-01-11T03:19:32.278Z,51.80
2023-01-11T03:22:07.982Z,51.80
2023-01-11T03:24:43.347Z,51.80
2023-01-11T03:27:20.292Z,51.80
2023-01-11T03:29:52.782Z,51.80
2023-01-11T03:32:28.799Z,51.80
2023-01-11T03:35:09.554Z,51.90
2023-01-11T03:37:40.796Z,51.90
2023-01-11T03:40:13.124Z,51.90
2023-01-11T03:42:59.413Z,51.90
2023-01-11T03:45:28.667Z,51.90
2023-01-11T03:48:00.305Z,51.90
2023-01-11T03:50:30.570Z,51.80
2023-01-11T03:53:00.444Z,51.90
2023-01-11T03:55:31.740Z,52.00
2023-01-11T03:58:00.192Z,52.00
2023-01-11T04:00:31.511Z,51.90
2023-01-11T04:03:01.920Z,51.90
2023-01-11T04:05:30.023Z,51.90
2023-01-11T04:07:58.013Z,52.00
2023-01-11T04:10:25.880Z,51.90
2023-01-11T04:12:53.751Z,52.00
2023-01-11T04:15:21.641Z,51.90
2023-01-11T04:17:49.497Z,52.00
2023-01-11T04:20:18.872Z,51.90
2023-01-11T04:22:46.734Z,51.90
2023-01-11T04:25:14.672Z,52.00
2023-01-11T04:27:42.563Z,51.90
2023-01-11T04:30:11.573Z,52.00
2023-01-11T04:32:39.416Z,52.00
2023-01-11T04:35:07.896Z,52.00
2023-01-11T04:37:37.100Z,52.00
2023-01-11T04:40:05.438Z,51.90
2023-01-11T04:42:32.330Z,51.90
2023-01-11T04:45:00.169Z,52.00
2023-01-11T04:47:28.005Z,52.00
2023-01-11T04:49:55.863Z,51.90
2023-01-11T04:52:23.771Z,52.00
2023-01-11T04:54:53.958Z,51.90
2023-01-11T04:57:22.265Z,51.90
2023-01-11T04:59:50.348Z,52.00
2023-01-11T05:02:18.906Z,52.00
2023-01-11T05:04:46.795Z,52.60
2023-01-11T05:07:14.767Z,51.90
2023-01-11T05:09:43.244Z,51.90
2023-01-11T05:12:12.548Z,52.00
2023-01-11T05:14:40.405Z,52.00
2023-01-11T05:17:08.285Z,52.00
2023-01-11T05:19:36.112Z,51.90
2023-01-11T05:22:03.989Z,52.00
2023-01-11T05:24:31.831Z,52.00
2023-01-11T05:26:59.669Z,52.00
2023-01-11T05:29:29.026Z,52.00
2023-01-11T05:31:57.034Z,52.00
2023-01-11T05:34:24.961Z,52.00
2023-01-11T05:36:52.797Z,52.00
2023-01-11T05:39:22.988Z,52.00
2023-01-11T05:41:50.860Z,52.00
2023-01-11T05:44:37.000Z,52.00
2023-01-11T05:47:06.299Z,52.00
2023-01-11T05:49:34.119Z,52.00
2023-01-11T05:52:01.982Z,52.10
2023-01-11T05:54:29.851Z,52.00
2023-01-11T05:56:58.594Z,52.00
2023-01-11T05:59:26.830Z,52.00
2023-01-11T06:01:54.777Z,52.00
2023-01-11T06:04:24.068Z,52.00
2023-01-11T06:06:51.931Z,52.00
2023-01-11T06:09:19.865Z,52.10
2023-01-11T06:11:48.137Z,52.00
2023-01-11T06:14:16.142Z,52.00
2023-01-11T06:16:44.025Z,52.00
2023-01-11T06:19:12.317Z,52.00
2023-01-11T06:21:41.520Z,52.00
2023-01-11T06:24:09.433Z,52.00
2023-01-11T06:26:37.350Z,52.00
2023-01-11T06:29:05.222Z,52.00
2023-01-11T06:31:33.079Z,52.00
2023-01-11T06:34:00.913Z,52.00
2023-01-11T06:36:29.853Z,52.00
2023-01-11T06:38:59.225Z,52.00
2023-01-11T06:41:28.645Z,52.00
2023-01-11T06:43:56.586Z,52.00
2023-01-11T06:46:24.597Z,52.00
2023-01-11T06:48:52.459Z,52.00
2023-01-11T06:51:20.345Z,52.00
2023-01-11T06:53:48.237Z,52.00
2023-01-11T06:56:19.273Z,52.00
2023-01-11T06:58:47.917Z,52.00
2023-01-11T07:01:17.098Z,52.00
2023-01-11T07:03:45.520Z,52.00
2023-01-11T07:06:13.850Z,52.00
2023-01-11T07:08:42.460Z,52.00
2023-01-11T07:11:10.553Z,52.00
2023-01-11T07:13:39.786Z,52.00
2023-01-11T07:16:08.128Z,52.00
2023-01-11T07:18:36.012Z,52.00
2023-01-11T07:21:03.850Z,52.00
2023-01-11T07:23:31.706Z,52.00
2023-01-11T07:25:59.637Z,52.00
2023-01-11T07:28:28.438Z,52.00
2023-01-11T07:30:59.762Z,52.00
2023-01-11T07:33:28.390Z,52.00
2023-01-11T07:35:56.440Z,52.00
2023-01-11T07:38:24.558Z,52.00
2023-01-11T07:40:52.484Z,52.00
2023-01-11T07:43:20.001Z,52.00
2023-01-11T07:45:50.073Z,52.00
2023-01-11T07:48:24.522Z,52.00
2023-01-11T07:50:53.410Z,52.70
2023-01-11T07:53:21.534Z,52.00
2023-01-11T07:55:49.377Z,52.10
2023-01-11T07:58:17.358Z,52.10
2023-01-11T08:00:46.080Z,52.10
2023-01-11T08:03:14.202Z,52.00
2023-01-11T08:05:43.522Z,52.00
2023-01-11T08:08:11.420Z,52.00
2023-01-11T08:10:41.924Z,52.10
2023-01-11T08:13:31.394Z,52.00
2023-01-11T08:15:59.327Z,52.10
2023-01-11T08:18:27.218Z,52.00
2023-01-11T08:20:56.427Z,52.10
2023-01-11T08:23:25.398Z,52.10
2023-01-11T08:25:57.514Z,52.10
2023-01-11T08:28:25.343Z,52.10
2023-01-11T08:30:53.330Z,52.10
2023-01-11T08:33:21.241Z,52.10
2023-01-11T08:35:49.104Z,52.10
2023-01-11T08:38:18.362Z,52.10
2023-01-11T08:40:46.232Z,52.10
2023-01-11T08:43:14.074Z,52.10
2023-01-11T08:45:41.905Z,52.10
2023-01-11T08:48:09.821Z,52.20
2023-01-11T08:50:37.818Z,52.10
2023-01-11T08:53:05.720Z,52.10
2023-01-11T08:55:34.910Z,52.10
2023-01-11T08:58:02.782Z,52.10
2023-01-11T09:00:30.646Z,52.10
2023-01-11T09:03:01.581Z,52.10
2023-01-11T09:05:29.522Z,52.10
2023-01-11T09:07:57.775Z,52.10
2023-01-11T09:10:27.207Z,52.10
2023-01-11T09:12:56.632Z,52.10
2023-01-11T09:15:25.425Z,52.10
2023-01-11T09:17:53.680Z,52.10
2023-01-11T09:20:22.202Z,52.10
2023-01-11T09:22:52.922Z,52.10
2023-01-11T09:25:21.601Z,52.10
2023-01-11T09:27:50.924Z,52.10
2023-01-11T09:30:22.436Z,52.10
2023-01-11T09:32:51.839Z,52.10
2023-01-11T09:35:19.905Z,52.10
2023-01-11T09:37:49.947Z,52.10
2023-01-11T09:40:21.593Z,52.10
2023-01-11T09:42:52.705Z,52.10
2023-01-11T09:45:24.438Z,52.10
2023-01-11T09:48:00.959Z,52.10
2023-01-11T09:50:31.073Z,52.10
2023-01-11T09:53:03.301Z,52.10
2023-01-11T09:55:35.948Z,52.10
2023-01-11T09:58:29.241Z,52.10
2023-01-11T10:01:06.854Z,52.10
2023-01-11T10:04:24.008Z,52.20
2023-01-11T10:07:12.349Z,52.10
2023-01-11T10:18:32.235Z,52.10
2023-01-11T10:19:05.831Z,52.20
2023-01-11T10:21:40.953Z,52.10
2023-01-11T10:24:20.749Z,52.20
2023-01-11T10:26:49.959Z,52.10
2023-01-11T10:29:40.118Z,52.20
2023-01-11T10:32:34.631Z,52.20
2023-01-11T10:35:37.126Z,52.20
2023-01-11T10:38:36.545Z,52.20
2023-01-11T10:41:15.687Z,52.20
2023-01-11T10:43:47.720Z,52.20
2023-01-11T10:46:19.035Z,52.20
2023-01-11T10:48:47.589Z,52.20
2023-01-11T10:51:27.218Z,52.20
2023-01-11T10:57:03.004Z,52.20
2023-01-11T11:00:10.015Z,52.20
2023-01-11T11:02:59.333Z,52.20
2023-01-11T11:05:34.155Z,52.30
2023-01-11T11:08:10.102Z,52.20
2023-01-11T11:10:45.764Z,52.20
2023-01-11T11:13:17.695Z,52.30
2023-01-11T11:15:55.990Z,52.20
2023-01-11T11:18:24.767Z,52.20
2023-01-11T11:20:52.658Z,52.20
2023-01-11T11:23:28.614Z,52.20
2023-01-11T11:25:59.644Z,52.20
2023-01-11T11:28:29.638Z,52.20
2023-01-11T11:30:59.480Z,52.20
2023-01-11T11:33:34.079Z,52.20
2023-01-11T11:36:04.903Z,52.20
2023-01-11T11:38:36.078Z,52.20
2023-01-11T11:41:08.900Z,52.20
2023-01-11T11:43:38.155Z,52.20
2023-01-11T11:46:20.038Z,52.30
2023-01-11T11:49:11.994Z,52.70
2023-01-11T11:51:40.654Z,52.30
2023-01-11T11:54:22.152Z,52.20
2023-01-11T11:56:50.612Z,52.20
2023-01-11T11:59:21.123Z,52.20
2023-01-11T12:01:55.656Z,52.20
2023-01-11T12:04:31.117Z,52.20
2023-01-11T12:07:08.560Z,52.30
2023-01-11T12:09:40.576Z,52.30
2023-01-11T12:12:08.795Z,52.20
2023-01-11T12:14:36.673Z,52.20
2023-01-11T12:17:23.698Z,52.40
2023-01-11T12:19:51.632Z,52.40
2023-01-11T12:22:21.604Z,52.30
2023-01-11T12:25:05.745Z,52.20
2023-01-11T12:27:41.650Z,52.20
2023-01-11T12:30:20.796Z,52.40
2023-01-11T12:33:07.287Z,52.30
2023-01-11T12:35:41.961Z,52.30
2023-01-11T12:38:30.518Z,52.40
2023-01-11T12:41:43.687Z,52.30
2023-01-11T12:44:19.956Z,52.30
2023-01-11T12:46:59.921Z,52.40
2023-01-11T12:49:40.767Z,52.40
2023-01-11T12:52:39.580Z,52.40
2023-01-11T12:55:20.673Z,52.40
2023-01-11T12:58:01.458Z,52.40
2023-01-11T13:00:51.233Z,52.30
2023-01-11T13:03:51.681Z,52.40
2023-01-11T13:06:24.448Z,52.40
2023-01-11T13:09:00.864Z,52.40
2023-01-11T13:11:43.536Z,52.40
2023-01-11T13:14:26.850Z,52.40
2023-01-11T13:17:02.181Z,52.40
2023-01-11T13:19:37.427Z,52.40
2023-01-11T13:22:06.958Z,52.40
2023-01-11T13:24:35.056Z,52.40
2023-01-11T13:27:05.848Z,53.00
2023-01-11T13:29:38.743Z,52.40
2023-01-11T13:32:12.569Z,52.40
2023-01-11T13:34:43.060Z,52.40
2023-01-11T13:37:16.594Z,52.30
2023-01-11T13:39:49.403Z,52.40
2023-01-11T13:42:24.125Z,52.40
2023-01-11T13:44:59.083Z,52.40
2023-01-11T13:47:31.930Z,52.40
2023-01-11T13:50:04.533Z,52.40
2023-01-11T13:52:49.423Z,52.40
2023-01-11T13:55:26.842Z,52.50
2023-01-11T13:58:00.884Z,52.30
2023-01-11T14:00:33.783Z,52.40
2023-01-11T14:03:08.642Z,52.40
2023-01-11T14:05:44.827Z,52.40
2023-01-11T14:08:30.817Z,52.50
2023-01-11T14:11:05.412Z,52.50
2023-01-11T14:14:17.857Z,52.50
2023-01-11T14:17:08.071Z,52.50
2023-01-11T14:19:43.055Z,52.50
2023-01-11T14:22:19.038Z,52.50
2023-01-11T14:24:56.515Z,52.50
2023-01-11T14:27:59.719Z,52.50
2023-01-11T14:30:59.496Z,52.50
2023-01-11T14:34:24.528Z,52.50
2023-01-11T14:37:20.147Z,52.50
2023-01-11T14:40:24.596Z,52.50
2023-01-11T14:43:18.215Z,52.50
2023-01-11T14:46:09.275Z,52.50
2023-01-11T14:48:44.067Z,52.50
2023-01-11T14:51:33.626Z,52.50
2023-01-11T14:54:07.414Z,52.50
2023-01-11T14:56:54.593Z,52.60
2023-01-11T14:59:33.998Z,52.50
2023-01-11T15:02:27.131Z,52.50
2023-01-11T15:05:07.218Z,52.50
2023-01-11T15:07:37.782Z,52.50
2023-01-11T15:10:41.856Z,52.50
2023-01-11T15:13:15.931Z,52.50
2023-01-11T15:16:01.029Z,52.50
2023-01-11T15:18:30.215Z,52.50
2023-01-11T15:21:05.882Z,52.50
2023-01-11T15:23:37.472Z,52.50
2023-01-11T15:26:09.349Z,52.50
2023-01-11T15:28:45.800Z,52.50
2023-01-11T15:31:39.056Z,52.50
2023-01-11T15:34:26.383Z,52.60
2023-01-11T15:37:36.853Z,52.50
2023-01-11T15:40:12.753Z,52.50
2023-01-11T15:43:07.391Z,52.50
2023-01-11T15:46:23.072Z,52.50
2023-01-11T15:49:12.300Z,52.60
2023-01-11T15:52:06.797Z,52.50
2023-01-11T15:55:16.307Z,52.50
2023-01-11T15:58:06.305Z,53.20
2023-01-11T16:01:08.038Z,52.50
2023-01-11T16:03:54.619Z,52.50
2023-01-11T16:06:32.827Z,52.60
2023-01-11T16:09:13.607Z,52.50
2023-01-11T16:11:51.309Z,52.60
2023-01-11T16:14:51.729Z,52.50
2023-01-11T16:17:23.757Z,52.50
2023-01-11T16:19:56.500Z,52.50
2023-01-11T16:22:27.013Z,52.60
2023-01-11T16:24:58.310Z,52.50
2023-01-11T16:27:29.112Z,52.50
2023-01-11T16:29:58.725Z,52.50
2023-01-11T16:32:32.418Z,52.50
2023-01-11T16:35:01.455Z,52.50
2023-01-11T16:37:34.349Z,52.50
2023-01-11T16:40:11.769Z,52.50
2023-01-11T16:42:46.851Z,52.50
2023-01-11T16:45:20.535Z,52.50
2023-01-11T16:48:03.828Z,52.50
2023-01-11T16:50:32.749Z,52.50
2023-01-11T16:53:01.768Z,52.50
2023-01-11T16:55:34.251Z,52.50
2023-01-11T16:58:05.802Z,52.50
2023-01-11T17:00:38.256Z,52.50
2023-01-11T17:03:22.332Z,52.50
2023-01-11T17:06:18.433Z,52.50
2023-01-11T17:08:49.457Z,52.60
2023-01-11T17:11:31.037Z,52.50
2023-01-11T17:14:32.214Z,52.50
2023-01-11T17:17:04.146Z,52.50
2023-01-11T17:19:34.911Z,52.50
2023-01-11T17:22:06.515Z,52.50
2023-01-11T17:24:40.771Z,52.50
2023-01-11T17:27:16.623Z,52.50
2023-01-11T17:29:47.343Z,52.50
2023-01-11T17:32:22.905Z,52.50
2023-01-11T17:34:51.825Z,52.50
2023-01-11T17:37:20.397Z,52.50
2023-01-11T17:39:51.103Z,52.50
2023-01-11T17:42:37.272Z,52.50
2023-01-11T17:45:17.339Z,52.50
2023-01-11T17:47:49.824Z,52.50
2023-01-11T17:50:28.112Z,52.50
2023-01-11T17:53:08.028Z,52.50
2023-01-11T17:55:36.169Z,52.50
2023-01-11T17:58:18.084Z,52.50
2023-01-11T18:01:03.287Z,52.50
2023-01-11T18:03:39.731Z,52.50
2023-01-11T18:06:13.317Z,52.50
2023-01-11T18:08:46.443Z,52.50
2023-01-11T18:11:23.555Z,52.50
2023-01-11T18:13:52.575Z,52.50
2023-01-11T18:16:21.593Z,52.50
2023-01-11T18:18:52.854Z,52.50
2023-01-11T18:21:41.722Z,52.50
2023-01-11T18:24:32.332Z,52.50
2023-01-11T18:27:09.079Z,52.50
2023-01-11T18:29:51.231Z,52.50
2023-01-11T18:32:19.676Z,52.50
2023-01-11T18:34:52.113Z,52.50
2023-01-11T18:37:20.873Z,52.50
2023-01-11T18:39:48.759Z,52.50
2023-01-11T18:42:19.204Z,52.50
2023-01-11T18:44:49.508Z,52.50
2023-01-11T18:47:19.791Z,52.50
2023-01-11T18:49:49.805Z,52.50
2023-01-11T18:52:18.420Z,52.50
2023-01-11T18:54:46.697Z,52.50
2023-01-11T18:57:14.703Z,52.50
2023-01-11T18:59:42.782Z,52.50
2023-01-11T19:02:24.575Z,52.50
2023-01-11T19:04:55.180Z,52.50
2023-01-11T19:07:23.985Z,52.50
2023-01-11T19:09:52.320Z,52.50
2023-01-11T19:12:20.190Z,52.50
2023-01-11T19:14:48.164Z,52.50
2023-01-11T19:17:16.044Z,52.50
2023-01-11T19:19:43.977Z,53.10
2023-01-11T19:22:13.285Z,52.50
2023-01-11T19:24:41.789Z,52.50
2023-01-11T19:27:09.780Z,52.50
2023-01-11T19:29:37.748Z,52.50
2023-01-11T19:32:06.142Z,52.50
2023-01-11T19:34:34.727Z,52.50
2023-01-11T19:37:02.712Z,52.50
2023-01-11T19:39:31.914Z,52.50
2023-01-11T19:41:59.872Z,52.50
2023-01-11T19:44:30.734Z,52.50
2023-01-11T19:47:10.501Z,52.50
2023-01-11T19:49:39.071Z,52.50
2023-01-11T19:52:12.126Z,52.50
2023-01-11T19:54:42.146Z,52.50
2023-01-11T19:57:11.156Z,52.50
2023-01-11T19:59:39.051Z,52.50
2023-01-11T20:02:07.767Z,52.50
2023-01-11T20:04:35.672Z,52.50
2023-01-11T20:07:03.660Z,52.50
2023-01-11T20:09:31.582Z,53.10
2023-01-11T20:12:00.966Z,52.50
2023-01-11T20:14:29.194Z,52.50
2023-01-11T20:16:57.057Z,52.50
2023-01-11T20:19:24.968Z,52.50
2023-01-11T20:21:52.922Z,52.50
2023-01-11T20:24:20.816Z,52.50
2023-01-11T20:26:48.768Z,52.50
2023-01-11T20:29:18.060Z,52.50
2023-01-11T20:31:46.316Z,52.50
2023-01-11T20:34:14.218Z,52.50
2023-01-11T20:36:43.103Z,52.50
2023-01-11T20:39:12.172Z,52.50
2023-01-11T20:41:49.732Z,52.50
2023-01-11T20:44:22.031Z,52.50
2023-01-11T20:46:50.103Z,52.70
2023-01-11T20:49:19.522Z,52.50
2023-01-11T20:51:47.770Z,52.50
2023-01-11T20:54:16.404Z,52.50
2023-01-11T20:56:46.516Z,52.50
2023-01-11T20:59:16.436Z,52.50
2023-01-11T21:01:45.777Z,52.50
2023-01-11T21:04:14.697Z,52.50
2023-01-11T21:06:44.835Z,52.50
2023-01-11T21:09:15.432Z,52.50
2023-01-11T21:11:44.144Z,52.50
2023-01-11T21:14:12.919Z,52.50
2023-01-11T21:16:42.752Z,52.40
2023-01-11T21:19:14.986Z,52.50
2023-01-11T21:21:43.527Z,52.50
2023-01-11T21:24:14.151Z,52.50
2023-01-11T21:26:43.592Z,52.50
2023-01-11T21:29:12.062Z,52.50
2023-01-11T21:31:40.940Z,52.50
2023-01-11T21:34:09.271Z,53.10
2023-01-11T21:36:38.570Z,52.50
2023-01-11T21:39:06.516Z,52.50
2023-01-11T21:41:52.491Z,52.40
2023-01-11T21:44:21.850Z,52.40
2023-01-11T21:46:50.593Z,52.50
2023-01-11T21:49:18.793Z,52.40
2023-01-11T21:51:48.004Z,52.50
2023-01-11T21:54:18.788Z,52.40
2023-01-11T21:56:46.852Z,52.40
2023-01-11T21:59:15.334Z,52.40
2023-01-11T22:01:45.977Z,52.40
2023-01-11T22:04:15.722Z,53.10
2023-01-11T22:06:47.162Z,52.40
2023-01-11T22:09:16.479Z,52.40
2023-01-11T22:11:44.387Z,52.50
2023-01-11T22:14:12.454Z,52.40
2023-01-11T22:16:40.577Z,52.50
2023-01-11T22:19:09.125Z,52.50
2023-01-11T22:21:37.669Z,52.40
2023-01-11T22:24:08.955Z,52.40
2023-01-11T22:26:40.078Z,52.40
2023-01-11T22:29:19.805Z,52.40
2023-01-11T22:31:50.890Z,52.40
2023-01-11T22:34:19.394Z,52.40
2023-01-11T22:36:47.451Z,52.40
2023-01-11T22:39:16.640Z,52.40
2023-01-11T22:41:46.289Z,52.40
2023-01-11T22:44:14.676Z,52.40
2023-01-11T22:46:42.876Z,52.40
2023-01-11T22:49:11.619Z,52.40
2023-01-11T22:51:40.707Z,52.40
2023-01-11T22:54:08.750Z,52.40
2023-01-11T22:56:36.711Z,52.40
2023-01-11T22:59:06.160Z,52.40
2023-01-11T23:01:35.454Z,52.40
2023-01-11T23:04:04.246Z,52.40
2023-01-11T23:06:33.815Z,52.40
2023-01-11T23:09:01.757Z,52.40
2023-01-11T23:11:48.922Z,52.40
2023-01-11T23:14:19.639Z,52.40
2023-01-11T23:16:50.063Z,52.40
2023-01-11T23:19:19.724Z,53.10
2023-01-11T23:21:48.962Z,52.40
2023-01-11T23:24:17.867Z,52.40
2023-01-11T23:26:46.284Z,52.40
2023-01-11T23:29:14.378Z,52.40
2023-01-11T23:31:44.229Z,52.40
2023-01-11T23:34:13.176Z,52.40
2023-01-11T23:36:43.187Z,52.40
2023-01-11T23:39:14.738Z,52.40
2023-01-11T23:42:00.867Z,53.00
2023-01-11T23:44:28.927Z,52.40
2023-01-11T23:47:15.704Z,52.40
2023-01-11T23:49:44.284Z,52.40
2023-01-11T23:52:12.308Z,52.40
2023-01-11T23:54:40.188Z,52.40
2023-01-11T23:57:09.325Z,52.40
2023-01-11T23:59:37.250Z,52.40
